createdAt,value
2018-04-10T00:00:46.053Z,21.25
2018-04-10T00:03:12.000Z,21.25
2018-04-10T00:05:37.933Z,21.26
2018-04-10T00:08:03.881Z,21.26
2018-04-10T00:10:29.903Z,21.26
2018-04-10T00:12:55.867Z,21.25
2018-04-10T00:15:21.824Z,21.27
2018-04-10T00:17:47.789Z,21.27
2018-04-10T00:20:13.720Z,21.24
2018-04-10T00:22:39.691Z,21.26
2018-04-10T00:25:05.653Z,21.26
2018-04-10T00:27:31.595Z,21.27
2018-04-10T00:29:57.563Z,21.26
2018-04-10T00:32:23.499Z,21.29
2018-04-10T00:34:49.451Z,21.27
2018-04-10T00:37:15.411Z,21.25
2018-04-10T00:39:41.368Z,21.23
2018-04-10T00:42:07.316Z,21.20
2018-04-10T00:44:33.251Z,21.20
2018-04-10T00:46:59.208Z,21.18
2018-04-10T00:49:25.187Z,21.27
2018-04-10T00:51:51.115Z,21.24
2018-04-10T00:54:17.060Z,21.27
2018-04-10T00:56:42.996Z,21.27
2018-04-10T00:59:08.944Z,21.22
2018-04-10T01:01:34.899Z,21.25
2018-04-10T01:04:00.843Z,21.26
2018-04-10T01:06:26.786Z,21.28
2018-04-10T01:08:52.769Z,21.26
2018-04-10T01:11:18.703Z,21.26
2018-04-10T01:13:44.647Z,21.27
2018-04-10T01:16:10.599Z,21.26
2018-04-10T01:18:36.556Z,21.29
2018-04-10T01:21:02.510Z,21.25
2018-04-10T01:23:28.492Z,21.28
2018-04-10T01:25:54.509Z,21.24
2018-04-10T01:28:20.487Z,21.23
2018-04-10T01:30:46.415Z,21.21
2018-04-10T01:33:12.376Z,21.22
2018-04-10T01:35:38.311Z,21.22
2018-04-10T01:38:04.243Z,21.20
2018-04-10T01:40:30.241Z,21.22
2018-04-10T01:42:56.195Z,21.24
2018-04-10T01:45:22.169Z,21.23
2018-04-10T01:47:48.099Z,21.25
2018-04-10T01:50:14.051Z,21.25
2018-04-10T01:52:40.018Z,21.25
2018-04-10T01:55:05.978Z,21.24
2018-04-10T01:57:31.923Z,21.26
2018-04-10T01:59:57.872Z,21.25
2018-04-10T02:02:23.822Z,21.23
2018-04-10T02:04:49.748Z,21.26
2018-04-10T02:07:15.696Z,21.28
2018-04-10T02:09:41.639Z,21.25
2018-04-10T02:12:07.582Z,21.25
2018-04-10T02:14:33.623Z,21.21
2018-04-10T02:16:59.572Z,21.20
2018-04-10T02:19:25.528Z,21.21
2018-04-10T02:21:51.530Z,21.20
2018-04-10T02:24:17.508Z,21.20
2018-04-10T02:26:43.443Z,21.23
2018-04-10T02:29:09.505Z,21.19
2018-04-10T02:31:35.471Z,21.23
2018-04-10T02:34:01.407Z,21.22
2018-04-10T02:36:27.476Z,21.26
2018-04-10T02:38:53.424Z,21.25
2018-04-10T02:41:19.351Z,21.23
2018-04-10T02:43:45.371Z,21.22
2018-04-10T02:46:11.304Z,21.25
2018-04-10T02:48:37.263Z,21.25
2018-04-10T02:51:03.207Z,21.22
2018-04-10T02:53:29.172Z,21.26
2018-04-10T02:55:55.109Z,21.23
2018-04-10T02:58:21.101Z,21.22
2018-04-10T03:00:47.032Z,21.25
2018-04-10T03:03:13.025Z,21.24
2018-04-10T03:05:38.933Z,21.22
2018-04-10T03:08:04.877Z,21.22
2018-04-10T03:10:30.816Z,21.16
2018-04-10T03:12:56.762Z,21.18
2018-04-10T03:15:22.694Z,21.19
2018-04-10T03:17:48.627Z,21.23
2018-04-10T03:20:14.569Z,21.26
2018-04-10T03:22:40.507Z,21.24
2018-04-10T03:25:06.448Z,21.24
2018-04-10T03:27:32.442Z,21.23
2018-04-10T03:29:58.378Z,21.21
2018-04-10T03:32:24.320Z,21.23
2018-04-10T03:34:50.267Z,21.22
2018-04-10T03:37:16.220Z,21.20
2018-04-10T03:39:42.175Z,21.22
2018-04-10T03:42:08.195Z,21.21
2018-04-10T03:44:34.151Z,21.22
2018-04-10T03:47:00.092Z,21.23
2018-04-10T03:49:26.031Z,21.27
2018-04-10T03:51:51.983Z,21.20
2018-04-10T03:54:17.965Z,21.18
2018-04-10T03:56:43.901Z,21.16
2018-04-10T03:59:09.900Z,21.18
2018-04-10T04:01:35.839Z,21.17
2018-04-10T04:04:01.789Z,21.19
2018-04-10T04:06:27.729Z,21.18
2018-04-10T04:08:53.733Z,21.25
2018-04-10T04:11:19.668Z,21.18
2018-04-10T04:13:45.654Z,21.23
2018-04-10T04:16:11.591Z,21.22
2018-04-10T04:18:37.551Z,21.21
2018-04-10T04:21:03.524Z,21.23
2018-04-10T04:23:29.485Z,21.27
2018-04-10T04:25:55.424Z,21.17
2018-04-10T04:28:21.469Z,21.18
2018-04-10T04:30:47.439Z,21.19
2018-04-10T04:33:13.375Z,21.17
2018-04-10T04:35:39.400Z,21.17
2018-04-10T04:38:05.338Z,21.17
2018-04-10T04:40:31.303Z,21.10
2018-04-10T04:42:57.247Z,21.08
2018-04-10T04:45:23.192Z,21.12
2018-04-10T04:47:49.131Z,21.12
2018-04-10T04:50:15.081Z,21.17
2018-04-10T04:52:41.144Z,21.19
2018-04-10T04:55:07.088Z,21.16
2018-04-10T04:57:33.058Z,21.19
2018-04-10T04:59:58.990Z,21.20
2018-04-10T05:02:24.923Z,21.12
2018-04-10T05:04:50.988Z,21.16
2018-04-10T05:07:16.928Z,21.17
2018-04-10T05:09:42.883Z,21.15
2018-04-10T05:12:08.856Z,21.16
2018-04-10T05:14:34.900Z,21.17
2018-04-10T05:17:00.839Z,21.22
2018-04-10T05:19:26.775Z,21.21
2018-04-10T05:21:52.718Z,21.22
2018-04-10T05:24:18.651Z,21.21
2018-04-10T05:26:44.636Z,21.22
2018-04-10T05:29:10.573Z,21.24
2018-04-10T05:31:36.514Z,21.24
2018-04-10T05:34:02.496Z,21.22
2018-04-10T05:36:28.429Z,21.23
2018-04-10T05:38:54.382Z,21.20
2018-04-10T05:41:20.364Z,21.20
2018-04-10T05:43:46.319Z,21.17
2018-04-10T05:46:12.282Z,21.18
2018-04-10T05:48:38.227Z,21.20
2018-04-10T05:51:04.256Z,21.25
2018-04-10T05:53:30.183Z,21.23
2018-04-10T05:55:56.147Z,21.24
2018-04-10T05:58:22.085Z,21.18
2018-04-10T06:00:48.031Z,21.17
2018-04-10T06:03:13.964Z,21.17
2018-04-10T06:05:39.928Z,21.21
2018-04-10T06:08:05.880Z,21.20
2018-04-10T06:10:31.819Z,21.17
2018-04-10T06:12:57.779Z,21.13
2018-04-10T06:15:23.759Z,21.19
2018-04-10T06:17:49.728Z,21.18
2018-04-10T06:20:15.681Z,21.16
2018-04-10T06:22:41.634Z,21.20
2018-04-10T06:25:07.579Z,21.18
2018-04-10T06:27:33.531Z,21.19
2018-04-10T06:29:59.472Z,21.19
2018-04-10T06:32:25.423Z,21.19
2018-04-10T06:34:51.363Z,21.19
2018-04-10T06:37:17.382Z,21.18
2018-04-10T06:39:43.319Z,21.17
2018-04-10T06:42:09.263Z,21.18
2018-04-10T06:44:35.231Z,21.16
2018-04-10T06:47:01.189Z,21.18
2018-04-10T06:49:27.129Z,21.30
2018-04-10T06:51:53.143Z,21.26
2018-04-10T06:54:19.180Z,21.20
2018-04-10T06:56:45.196Z,21.20
2018-04-10T06:59:11.268Z,21.19
2018-04-10T07:01:37.305Z,21.18
2018-04-10T07:04:03.210Z,21.25
2018-04-10T07:06:29.261Z,21.23
2018-04-10T07:08:55.242Z,21.20
2018-04-10T07:11:21.269Z,21.16
2018-04-10T07:13:47.215Z,21.15
2018-04-10T07:16:13.177Z,21.15
2018-04-10T07:18:39.131Z,21.16
2018-04-10T07:21:05.068Z,21.17
2018-04-10T07:23:31.034Z,21.16
2018-04-10T07:25:56.975Z,21.18
2018-04-10T07:28:22.931Z,21.29
2018-04-10T07:30:48.907Z,21.32
2018-04-10T07:33:14.856Z,21.39
2018-04-10T07:35:40.803Z,21.38
2018-04-10T07:38:06.787Z,21.33
2018-04-10T07:40:32.732Z,21.28
2018-04-10T07:42:58.675Z,21.30
2018-04-10T07:45:24.644Z,21.27
2018-04-10T07:47:50.544Z,21.33
2018-04-10T07:50:16.508Z,21.32
2018-04-10T07:52:42.463Z,21.29
2018-04-10T07:55:08.411Z,21.26
2018-04-10T07:57:34.367Z,21.30
2018-04-10T08:00:00.441Z,21.31
2018-04-10T08:02:26.396Z,21.33
2018-04-10T08:04:52.339Z,21.28
2018-04-10T08:07:18.403Z,21.29
2018-04-10T08:09:44.368Z,21.30
2018-04-10T08:12:10.315Z,21.27
2018-04-10T08:14:36.288Z,21.25
2018-04-10T08:17:02.320Z,21.29
2018-04-10T08:19:28.282Z,21.31
2018-04-10T08:21:54.266Z,21.32
2018-04-10T08:24:20.209Z,21.29
2018-04-10T08:26:46.146Z,21.25
2018-04-10T08:29:12.096Z,21.27
2018-04-10T08:31:38.063Z,21.26
2018-04-10T08:34:04.023Z,21.26
2018-04-10T08:36:30.044Z,21.28
2018-04-10T08:38:55.985Z,21.28
2018-04-10T08:41:21.970Z,21.23
2018-04-10T08:43:47.930Z,21.25
2018-04-10T08:46:13.850Z,21.20
2018-04-10T08:48:39.792Z,21.25
2018-04-10T08:51:05.739Z,21.21
2018-04-10T08:53:31.709Z,21.35
2018-04-10T08:55:57.774Z,21.31
2018-04-10T08:58:23.788Z,21.26
2018-04-10T09:00:49.732Z,21.24
2018-04-10T09:03:15.675Z,21.28
2018-04-10T09:05:41.620Z,21.26
2018-04-10T09:08:07.556Z,21.26
2018-04-10T09:10:33.676Z,21.26
2018-04-10T09:12:59.627Z,21.29
2018-04-10T09:15:25.680Z,21.25
2018-04-10T09:17:51.632Z,21.23
2018-04-10T09:20:17.598Z,21.23
2018-04-10T09:22:43.539Z,21.36
2018-04-10T09:25:09.520Z,21.28
2018-04-10T09:27:35.490Z,21.22
2018-04-10T09:30:01.432Z,21.21
2018-04-10T09:32:27.499Z,21.23
2018-04-10T09:34:53.455Z,21.24
2018-04-10T09:37:19.408Z,21.26
2018-04-10T09:39:45.355Z,21.25
2018-04-10T09:42:11.303Z,21.25
2018-04-10T09:44:37.253Z,21.25
2018-04-10T09:47:03.187Z,21.29
2018-04-10T09:49:29.153Z,21.28
2018-04-10T09:51:55.095Z,21.28
2018-04-10T09:54:21.139Z,21.28
2018-04-10T09:56:47.132Z,21.29
2018-04-10T09:59:13.179Z,21.29
2018-04-10T10:01:39.132Z,21.28
2018-04-10T10:04:05.103Z,21.27
2018-04-10T10:06:31.061Z,21.31
2018-04-10T10:08:57.006Z,21.32
2018-04-10T10:11:22.984Z,21.31
2018-04-10T10:13:48.921Z,21.32
2018-04-10T10:16:14.892Z,21.33
2018-04-10T10:18:40.847Z,21.35
2018-04-10T10:21:06.787Z,21.35
2018-04-10T10:23:32.732Z,21.35
2018-04-10T10:25:58.765Z,21.35
2018-04-10T10:28:24.703Z,21.31
2018-04-10T10:30:50.654Z,21.40
2018-04-10T10:33:16.611Z,21.32
2018-04-10T10:35:42.560Z,21.28
2018-04-10T10:38:08.487Z,21.27
2018-04-10T10:40:34.428Z,21.27
2018-04-10T10:43:00.381Z,21.23
2018-04-10T10:45:26.321Z,21.23
2018-04-10T10:47:52.263Z,21.25
2018-04-10T10:50:18.232Z,21.25
2018-04-10T10:52:44.209Z,21.24
2018-04-10T10:55:10.118Z,21.24
2018-04-10T10:57:36.087Z,21.24
2018-04-10T11:00:02.033Z,21.25
2018-04-10T11:02:27.990Z,21.22
2018-04-10T11:04:53.931Z,21.24
2018-04-10T11:07:19.908Z,21.22
2018-04-10T11:09:45.875Z,21.22
2018-04-10T11:12:11.816Z,21.20
2018-04-10T11:14:37.752Z,21.17
2018-04-10T11:17:03.699Z,21.17
2018-04-10T11:19:29.676Z,21.20
2018-04-10T11:21:55.609Z,21.19
2018-04-10T11:24:21.569Z,21.20
2018-04-10T11:26:47.511Z,21.23
2018-04-10T11:29:13.482Z,21.21
2018-04-10T11:31:39.428Z,21.21
2018-04-10T11:34:05.370Z,21.21
2018-04-10T11:36:31.297Z,21.19
2018-04-10T11:38:57.247Z,21.23
2018-04-10T11:41:23.201Z,21.22
2018-04-10T11:43:49.141Z,21.22
2018-04-10T11:46:15.135Z,21.22
2018-04-10T11:48:41.096Z,21.22
2018-04-10T11:51:07.048Z,21.24
2018-04-10T11:53:32.992Z,21.22
2018-04-10T11:55:58.935Z,21.25
2018-04-10T11:58:24.903Z,21.24
2018-04-10T12:00:50.887Z,21.21
2018-04-10T12:03:16.823Z,21.25
2018-04-10T12:05:42.768Z,21.22
2018-04-10T12:08:08.733Z,21.19
2018-04-10T12:10:34.768Z,21.23
2018-04-10T12:13:00.728Z,21.20
2018-04-10T12:15:26.661Z,21.18
2018-04-10T12:17:52.603Z,21.24
2018-04-10T12:20:18.555Z,21.22
2018-04-10T12:22:44.492Z,21.19
2018-04-10T12:25:10.447Z,21.18
2018-04-10T12:27:36.387Z,21.22
2018-04-10T12:30:02.447Z,21.22
2018-04-10T12:32:28.391Z,21.18
2018-04-10T12:34:54.423Z,21.17
2018-04-10T12:37:20.364Z,21.20
2018-04-10T12:39:46.314Z,21.22
2018-04-10T12:42:12.272Z,21.24
2018-04-10T12:44:38.227Z,21.30
2018-04-10T12:47:04.169Z,21.26
2018-04-10T12:49:30.120Z,21.22
2018-04-10T12:51:56.088Z,21.19
2018-04-10T12:54:22.056Z,21.22
2018-04-10T12:56:48.079Z,21.26
2018-04-10T12:59:14.110Z,21.30
2018-04-10T13:01:40.138Z,21.32
2018-04-10T13:04:06.177Z,21.36
2018-04-10T13:06:32.111Z,21.39
2018-04-10T13:08:58.068Z,21.34
2018-04-10T13:11:24.029Z,21.35
2018-04-10T13:13:50.082Z,21.42
2018-04-10T13:16:16.052Z,21.41
2018-04-10T13:18:42.031Z,21.40
2018-04-10T13:21:07.977Z,21.39
2018-04-10T13:23:33.917Z,21.41
2018-04-10T13:25:59.873Z,21.43
2018-04-10T13:28:25.812Z,21.48
2018-04-10T13:30:51.783Z,21.47
2018-04-10T13:33:17.720Z,21.48
2018-04-10T13:35:43.829Z,21.47
2018-04-10T13:38:09.872Z,21.35
2018-04-10T13:40:35.808Z,21.50
2018-04-10T13:43:02.042Z,21.42
2018-04-10T13:45:27.983Z,21.39
2018-04-10T13:47:53.954Z,21.42
2018-04-10T13:50:20.009Z,21.43
2018-04-10T13:52:45.944Z,21.42
2018-04-10T13:55:11.903Z,21.43
2018-04-10T13:57:37.847Z,21.41
2018-04-10T14:00:03.784Z,21.39
2018-04-10T14:02:29.742Z,21.43
2018-04-10T14:04:55.745Z,21.42
2018-04-10T14:07:21.723Z,21.42
2018-04-10T14:09:47.664Z,21.43
2018-04-10T14:12:13.617Z,21.43
2018-04-10T14:14:39.558Z,21.48
2018-04-10T14:17:05.514Z,21.54
2018-04-10T14:19:31.449Z,21.42
2018-04-10T14:21:57.407Z,21.42
2018-04-10T14:24:23.379Z,21.41
2018-04-10T14:26:49.323Z,21.37
2018-04-10T14:29:15.275Z,21.43
2018-04-10T14:31:41.246Z,21.35
2018-04-10T14:34:07.183Z,21.32
2018-04-10T14:36:33.135Z,21.39
2018-04-10T14:38:59.096Z,21.52
2018-04-10T14:41:25.087Z,21.54
2018-04-10T14:43:51.083Z,21.65
2018-04-10T14:46:17.027Z,21.50
2018-04-10T14:48:42.984Z,21.45
2018-04-10T14:51:08.936Z,21.45
2018-04-10T14:53:34.899Z,21.41
2018-04-10T14:56:00.847Z,21.53
2018-04-10T14:58:26.810Z,21.42
2018-04-10T15:00:52.772Z,21.38
2018-04-10T15:03:18.704Z,21.38
2018-04-10T15:05:44.656Z,21.39
2018-04-10T15:08:10.614Z,21.45
2018-04-10T15:10:36.589Z,21.43
2018-04-10T15:13:02.535Z,21.51
2018-04-10T15:15:28.518Z,21.49
2018-04-10T15:17:54.453Z,21.57
2018-04-10T15:20:20.431Z,21.49
2018-04-10T15:22:46.387Z,21.48
2018-04-10T15:25:12.343Z,21.49
2018-04-10T15:27:38.296Z,21.50
2018-04-10T15:30:04.327Z,21.50
2018-04-10T15:32:30.271Z,21.49
2018-04-10T15:34:56.314Z,21.59
2018-04-10T15:37:22.276Z,21.56
2018-04-10T15:39:48.228Z,21.63
2018-04-10T15:42:14.175Z,21.60
2018-04-10T15:44:40.229Z,21.64
2018-04-10T15:47:06.237Z,21.61
2018-04-10T15:49:32.139Z,21.64
2018-04-10T15:51:58.096Z,21.62
2018-04-10T15:54:24.066Z,21.67
2018-04-10T15:56:50.019Z,21.76
2018-04-10T15:59:15.970Z,21.76
2018-04-10T16:01:41.952Z,21.65
2018-04-10T16:04:07.908Z,21.64
2018-04-10T16:06:33.957Z,21.62
2018-04-10T16:08:59.939Z,21.67
2018-04-10T16:11:25.896Z,21.67
2018-04-10T16:13:51.930Z,21.77
2018-04-10T16:16:17.892Z,21.79
2018-04-10T16:18:43.845Z,21.74
2018-04-10T16:21:09.807Z,21.71
2018-04-10T16:23:35.779Z,21.71
2018-04-10T16:26:01.766Z,21.75
2018-04-10T16:28:27.707Z,21.71
2018-04-10T16:30:53.675Z,21.71
2018-04-10T16:33:19.618Z,21.73
2018-04-10T16:35:45.584Z,21.73
2018-04-10T16:38:11.633Z,21.72
2018-04-10T16:40:37.642Z,21.70
2018-04-10T16:43:03.582Z,21.81
2018-04-10T16:45:29.538Z,21.75
2018-04-10T16:47:55.492Z,21.72
2018-04-10T16:50:21.439Z,21.71
2018-04-10T16:52:47.400Z,21.71
2018-04-10T16:55:13.425Z,21.79
2018-04-10T16:57:39.400Z,21.71
2018-04-10T17:00:05.335Z,21.66
2018-04-10T17:02:31.401Z,21.70
2018-04-10T17:04:57.416Z,21.71
2018-04-10T17:07:23.435Z,21.75
2018-04-10T17:09:49.383Z,21.71
2018-04-10T17:12:15.476Z,21.88
2018-04-10T17:14:41.454Z,21.86
2018-04-10T17:17:07.435Z,21.91
2018-04-10T17:19:33.412Z,21.80
2018-04-10T17:21:59.358Z,21.73
2018-04-10T17:24:25.400Z,21.73
2018-04-10T17:26:51.376Z,21.66
2018-04-10T17:29:17.323Z,21.69
2018-04-10T17:31:43.336Z,21.70
2018-04-10T17:34:09.284Z,21.62
2018-04-10T17:36:35.235Z,21.62
2018-04-10T17:39:01.316Z,21.55
2018-04-10T17:41:27.372Z,21.54
2018-04-10T17:43:53.358Z,21.54
2018-04-10T17:46:19.316Z,21.49
2018-04-10T17:48:45.348Z,21.49
2018-04-10T17:51:11.312Z,21.49
2018-04-10T17:53:37.264Z,21.45
2018-04-10T17:56:03.263Z,21.49
2018-04-10T17:58:29.212Z,21.46
2018-04-10T18:00:55.167Z,21.45
2018-04-10T18:03:21.122Z,21.47
2018-04-10T18:05:47.090Z,21.49
2018-04-10T18:08:13.064Z,21.50
2018-04-10T18:10:39.004Z,21.47
2018-04-10T18:13:04.963Z,21.45
2018-04-10T18:15:30.916Z,21.47
2018-04-10T18:17:56.884Z,21.43
2018-04-10T18:20:22.872Z,21.44
2018-04-10T18:22:48.825Z,21.46
2018-04-10T18:25:14.801Z,21.46
2018-04-10T18:27:40.732Z,21.46
2018-04-10T18:30:06.728Z,21.42
2018-04-10T18:32:32.691Z,21.38
2018-04-10T18:34:58.656Z,21.42
2018-04-10T18:37:24.673Z,21.40
2018-04-10T18:39:50.628Z,21.40
2018-04-10T18:42:16.632Z,21.43
2018-04-10T18:44:42.597Z,21.42
2018-04-10T18:47:08.547Z,21.44
2018-04-10T18:49:34.495Z,21.50
2018-04-10T18:52:00.457Z,21.46
2018-04-10T18:54:26.400Z,21.43
2018-04-10T18:56:52.339Z,21.52
2018-04-10T18:59:18.316Z,21.43
2018-04-10T19:01:44.289Z,21.45
2018-04-10T19:04:10.242Z,21.45
2018-04-10T19:06:36.233Z,21.38
2018-04-10T19:09:02.185Z,21.38
2018-04-10T19:11:28.160Z,21.42
2018-04-10T19:13:54.124Z,21.42
2018-04-10T19:16:20.057Z,21.38
2018-04-10T19:18:46.005Z,21.37
2018-04-10T19:21:11.953Z,21.49
2018-04-10T19:23:37.943Z,21.40
2018-04-10T19:26:03.884Z,21.37
2018-04-10T19:28:29.857Z,21.42
2018-04-10T19:30:55.898Z,21.43
2018-04-10T19:33:21.880Z,21.45
2018-04-10T19:35:47.828Z,21.50
2018-04-10T19:38:13.830Z,21.57
2018-04-10T19:40:39.785Z,21.54
2018-04-10T19:43:05.736Z,21.56
2018-04-10T19:45:31.748Z,21.56
2018-04-10T19:47:57.695Z,21.54
2018-04-10T19:50:23.680Z,21.56
2018-04-10T19:52:49.639Z,21.59
2018-04-10T19:55:15.623Z,21.56
2018-04-10T19:57:41.579Z,21.63
2018-04-10T20:00:07.552Z,21.66
2018-04-10T20:02:33.509Z,21.63
2018-04-10T20:04:59.450Z,21.62
2018-04-10T20:07:25.472Z,21.64
2018-04-10T20:09:51.447Z,21.61
2018-04-10T20:12:17.461Z,21.61
2018-04-10T20:14:43.416Z,21.57
2018-04-10T20:17:09.360Z,21.58
2018-04-10T20:19:35.327Z,21.61
2018-04-10T20:22:01.297Z,21.60
2018-04-10T20:24:27.267Z,21.65
2018-04-10T20:26:53.918Z,21.67
2018-04-10T20:29:19.893Z,21.68
2018-04-10T20:31:45.859Z,21.70
2018-04-10T20:34:11.803Z,21.67
2018-04-10T20:36:37.765Z,21.69
2018-04-10T20:39:03.720Z,21.67
2018-04-10T20:41:29.691Z,21.65
2018-04-10T20:43:55.762Z,21.66
2018-04-10T20:46:21.731Z,21.67
2018-04-10T20:48:47.727Z,21.65
2018-04-10T20:51:13.663Z,21.67
2018-04-10T20:53:39.607Z,21.71
2018-04-10T20:56:05.580Z,21.73
2018-04-10T20:58:31.535Z,21.67
2018-04-10T21:00:57.532Z,21.64
2018-04-10T21:03:23.490Z,21.79
2018-04-10T21:05:49.435Z,21.78
2018-04-10T21:08:15.376Z,21.60
2018-04-10T21:10:41.331Z,21.57
2018-04-10T21:13:07.281Z,21.66
2018-04-10T21:15:33.235Z,21.68
2018-04-10T21:17:59.497Z,21.67
2018-04-10T21:20:25.432Z,21.68
2018-04-10T21:22:51.403Z,21.77
2018-04-10T21:25:17.391Z,21.76
2018-04-10T21:27:43.343Z,21.75
2018-04-10T21:30:09.307Z,21.70
2018-04-10T21:32:35.268Z,21.67
2018-04-10T21:35:01.211Z,21.79
2018-04-10T21:37:27.190Z,21.73
2018-04-10T21:39:53.151Z,21.67
2018-04-10T21:42:19.104Z,21.69
2018-04-10T21:44:45.075Z,21.61
2018-04-10T21:47:11.039Z,21.61
2018-04-10T21:49:37.016Z,21.59
2018-04-10T21:52:02.992Z,21.59
2018-04-10T21:54:28.927Z,21.63
2018-04-10T21:56:54.882Z,21.68
2018-04-10T21:59:20.815Z,21.67
2018-04-10T22:01:46.796Z,21.73
2018-04-10T22:04:12.757Z,21.70
2018-04-10T22:06:38.687Z,21.63
2018-04-10T22:09:04.708Z,21.68
2018-04-10T22:11:30.650Z,21.74
2018-04-10T22:13:56.624Z,21.71
2018-04-10T22:16:23.616Z,21.67
2018-04-10T22:18:49.568Z,21.67
2018-04-10T22:21:15.511Z,21.69
2018-04-10T22:23:41.491Z,21.68
2018-04-10T22:26:07.452Z,21.68
2018-04-10T22:28:33.403Z,21.64
2018-04-10T22:30:59.364Z,21.62
2018-04-10T22:33:25.424Z,21.57
2018-04-10T22:35:51.332Z,21.56
2018-04-10T22:38:17.309Z,21.50
2018-04-10T22:40:43.251Z,21.51
2018-04-10T22:43:09.212Z,21.47
2018-04-10T22:45:35.376Z,21.48
2018-04-10T22:48:01.358Z,21.46
2018-04-10T22:50:27.381Z,21.47
2018-04-10T22:52:53.334Z,21.50
2018-04-10T22:55:19.295Z,21.49
2018-04-10T22:57:45.257Z,21.53
2018-04-10T23:00:11.204Z,21.53
2018-04-10T23:02:37.182Z,21.61
2018-04-10T23:05:03.132Z,21.57
2018-04-10T23:07:29.078Z,21.60
2018-04-10T23:09:55.068Z,21.60
2018-04-10T23:12:21.015Z,21.60
2018-04-10T23:14:46.981Z,21.55
2018-04-10T23:17:12.928Z,21.59
2018-04-10T23:19:38.879Z,21.54
2018-04-10T23:22:04.812Z,21.58
2018-04-10T23:24:30.765Z,21.50
2018-04-10T23:26:56.708Z,21.47
2018-04-10T23:29:22.651Z,21.50
2018-04-10T23:31:48.622Z,21.47
2018-04-10T23:34:14.567Z,21.44
2018-04-10T23:36:40.600Z,21.43
2018-04-10T23:39:06.535Z,21.46
2018-04-10T23:41:32.513Z,21.47
2018-04-10T23:43:58.500Z,21.49
2018-04-10T23:46:24.537Z,21.50
2018-04-10T23:48:50.476Z,21.47
2018-04-10T23:51:16.409Z,21.53
2018-04-10T23:53:42.345Z,21.49
2018-04-10T23:56:08.288Z,21.45
2018-04-10T23:58:34.252Z,21.51
